Time;durP1;ratioP1;P1;durP2;ratioP2;P2;SDS_P1;SDS_P2;PMS_P1;PMS_P2;Temp;Humidity;BMP_temperature;BMP_pressure;BME280_temperature;BME280_humidity;BME280_pressure;Samples;Min_cycle;Max_cycle;Signal;HPM_P1;HPM_P2
2024/04/04 00:01:40;;;;;;;2.95;1.10;;;;;;;-141.50;100.00;63355.56;4916190;29;20059;-81
2024/04/04 00:04:07;;;;;;;2.90;1.00;;;;;;;-141.50;100.00;63355.56;4908117;29;20063;-83
2024/04/04 00:06:33;;;;;;;2.25;0.98;;;;;;;-141.50;100.00;63355.56;4889988;29;20048;-83
2024/04/04 00:08:59;;;;;;;2.67;1.10;;;;;;;-141.50;100.00;63355.56;4894988;29;20143;-81
2024/04/04 00:11:25;;;;;;;3.70;1.42;;;;;;;-141.50;100.00;63355.56;4902530;29;20056;-82
2024/04/04 00:13:51;;;;;;;2.90;1.30;;;;;;;-141.50;100.00;63355.56;4901422;29;20048;-81
2024/04/04 00:16:17;;;;;;;3.08;1.25;;;;;;;-141.50;100.00;63355.56;4902431;29;20405;-80
2024/04/04 00:18:46;;;;;;;3.10;1.23;;;;;;;-141.50;100.00;63355.56;4901003;29;20052;-81
2024/04/04 00:21:12;;;;;;;3.00;1.27;;;;;;;-141.50;100.00;63355.56;4898216;29;20112;-83
2024/04/04 00:23:37;;;;;;;2.40;1.33;;;;;;;-141.50;100.00;63355.56;4915450;29;20405;-81
2024/04/04 00:26:04;;;;;;;4.93;1.75;;;;;;;-141.50;100.00;63355.56;4915716;29;20481;-82
2024/04/04 00:28:32;;;;;;;2.78;1.80;;;;;;;-141.50;100.00;63355.56;4900844;29;20498;-81
2024/04/04 00:30:58;;;;;;;3.97;1.75;;;;;;;-141.50;100.00;63355.56;4902045;29;20528;-82
2024/04/04 00:33:24;;;;;;;5.75;2.20;;;;;;;-141.50;100.00;63355.56;4909460;29;20044;-83
2024/04/04 00:35:50;;;;;;;4.90;1.60;;;;;;;-141.50;100.00;63355.56;4907239;29;20438;-80
2024/04/04 00:38:16;;;;;;;2.50;1.85;;;;;;;-141.50;100.00;63355.56;4906917;29;20046;-81
2024/04/04 00:40:42;;;;;;;3.60;2.08;;;;;;;-141.50;100.00;63355.56;4918282;29;20095;-83
2024/04/04 00:43:08;;;;;;;4.90;2.35;;;;;;;-141.50;100.00;63355.56;4910360;29;20132;-82
2024/04/04 00:45:36;;;;;;;2.53;1.80;;;;;;;-141.50;100.00;63355.56;4913936;29;20681;-85
2024/04/04 00:48:02;;;;;;;3.17;1.92;;;;;;;-141.50;100.00;63355.56;4898866;29;20052;-83
2024/04/04 00:50:28;;;;;;;3.13;1.83;;;;;;;-141.50;100.00;63355.56;4899862;29;20299;-81
2024/04/04 00:52:55;;;;;;;4.65;2.30;;;;;;;-141.50;100.00;63355.56;4896365;29;20538;-83
2024/04/04 00:55:29;;;;;;;4.00;2.38;;;;;;;-141.50;100.00;63355.56;4899909;29;20060;-83
2024/04/04 00:57:56;;;;;;;4.68;2.15;;;;;;;-141.50;100.00;63355.56;4900057;29;20067;-82
2024/04/04 01:00:24;;;;;;;4.18;1.98;;;;;;;-141.50;100.00;63355.56;4902469;29;20051;-82
2024/04/04 01:02:53;;;;;;;3.83;2.08;;;;;;;-141.50;100.00;63355.56;4914349;29;20502;-81
2024/04/04 01:05:19;;;;;;;4.57;2.08;;;;;;;-141.50;100.00;63355.56;4899707;29;20056;-80
2024/04/04 01:07:48;;;;;;;3.13;1.60;;;;;;;-141.50;100.00;63355.56;4914661;29;20052;-82
2024/04/04 01:10:15;;;;;;;6.22;2.15;;;;;;;-141.50;100.00;63355.56;4899326;29;20544;-81
2024/04/04 01:12:42;;;;;;;3.13;1.60;;;;;;;-141.50;100.00;63355.56;4914747;29;20048;-81
2024/04/04 01:15:08;;;;;;;3.15;1.52;;;;;;;-141.50;100.00;63355.56;4920345;29;20139;-80
2024/04/04 01:17:34;;;;;;;2.65;1.50;;;;;;;-141.50;100.00;63355.56;4915249;29;20036;-80
2024/04/04 01:20:00;;;;;;;4.28;1.63;;;;;;;-141.50;100.00;63355.56;4896924;29;20056;-82
2024/04/04 01:22:27;;;;;;;3.70;1.38;;;;;;;-141.50;100.00;63355.56;4912893;29;20489;-83
2024/04/04 01:24:52;;;;;;;4.13;1.30;;;;;;;-141.50;100.00;63355.56;4897067;29;20090;-84
2024/04/04 01:27:18;;;;;;;2.83;1.30;;;;;;;-141.50;100.00;63355.56;4898058;29;20441;-82
2024/04/04 01:29:44;;;;;;;2.67;1.40;;;;;;;-141.50;100.00;63355.56;4912730;29;20036;-81
2024/04/04 01:32:10;;;;;;;3.53;1.40;;;;;;;-141.50;100.00;63355.56;4911855;29;20087;-79
2024/04/04 01:34:39;;;;;;;3.03;1.60;;;;;;;-141.50;100.00;63355.56;4914852;29;20051;-79
2024/04/04 01:37:05;;;;;;;2.90;1.40;;;;;;;-141.50;100.00;63355.56;4914175;29;20258;-83
2024/04/04 01:39:30;;;;;;;2.13;1.23;;;;;;;-141.50;100.00;63355.56;4903660;29;20315;-83
2024/04/04 01:41:56;;;;;;;2.58;1.20;;;;;;;-141.50;100.00;63355.56;4897866;29;20450;-80
2024/04/04 01:44:22;;;;;;;2.88;1.73;;;;;;;-141.50;100.00;63355.56;4899283;29;20048;-81
2024/04/04 01:46:49;;;;;;;4.63;1.65;;;;;;;-141.50;100.00;63355.56;4914312;29;20059;-82
2024/04/04 01:49:18;;;;;;;5.95;1.65;;;;;;;-141.50;100.00;63355.56;4895651;29;20505;-84
2024/04/04 01:51:44;;;;;;;2.70;1.65;;;;;;;-141.50;100.00;63355.56;4915830;29;20075;-81
2024/04/04 01:54:12;;;;;;;8.32;1.67;;;;;;;-141.50;100.00;63355.56;4905960;29;20052;-82
2024/04/04 01:56:38;;;;;;;3.20;1.70;;;;;;;-141.50;100.00;63355.56;4899427;29;20064;-82
2024/04/04 01:59:04;;;;;;;2.72;1.80;;;;;;;-141.50;100.00;63355.56;4892825;29;20083;-79
2024/04/04 02:01:30;;;;;;;5.88;1.73;;;;;;;-141.50;100.00;63355.56;4909344;29;20494;-80
2024/04/04 02:03:55;;;;;;;3.67;1.70;;;;;;;-141.50;100.00;63355.56;4897575;29;20044;-82
2024/04/04 02:06:21;;;;;;;5.28;2.03;;;;;;;-141.50;100.00;63355.56;4900159;29;20052;-80
2024/04/04 02:08:47;;;;;;;2.67;1.75;;;;;;;-141.50;100.00;63355.56;4915734;29;20567;-81
2024/04/04 02:11:13;;;;;;;2.63;1.73;;;;;;;-141.50;100.00;63355.56;4913049;29;20052;-83
2024/04/04 02:13:39;;;;;;;5.00;1.98;;;;;;;-141.50;100.00;63355.56;4914883;29;20100;-80
2024/04/04 02:16:05;;;;;;;4.93;1.75;;;;;;;-141.50;100.00;63355.56;4915021;29;20062;-79
2024/04/04 02:18:31;;;;;;;5.28;1.88;;;;;;;-141.50;100.00;63355.56;4914929;29;20406;-80
2024/04/04 02:20:57;;;;;;;6.22;2.28;;;;;;;-141.50;100.00;63355.56;4897010;29;20123;-81
2024/04/04 02:23:23;;;;;;;3.33;2.10;;;;;;;-141.50;100.00;63355.56;4913891;29;20048;-79
2024/04/04 02:25:49;;;;;;;4.93;2.30;;;;;;;-141.50;100.00;63355.56;4914519;29;20072;-83
2024/04/04 02:28:15;;;;;;;8.48;2.55;;;;;;;-141.50;100.00;63355.56;4899881;29;20052;-81
2024/04/04 02:30:41;;;;;;;4.57;2.40;;;;;;;-141.50;100.00;63355.56;4914026;29;20079;-82
2024/04/04 02:33:07;;;;;;;5.78;2.45;;;;;;;-141.50;100.00;63355.56;4912631;29;20063;-81
2024/04/04 02:35:32;;;;;;;4.13;2.60;;;;;;;-141.50;100.00;63355.56;4913330;29;20074;-81
2024/04/04 02:37:58;;;;;;;7.15;2.60;;;;;;;-141.50;100.00;63355.56;4912897;29;20522;-80
2024/04/04 02:40:24;;;;;;;8.38;2.92;;;;;;;-141.50;100.00;63355.56;4898247;29;20103;-81
2024/04/04 02:42:52;;;;;;;5.70;2.85;;;;;;;-141.50;100.00;63355.56;4912629;29;20062;-79
2024/04/04 02:45:22;;;;;;;5.05;2.95;;;;;;;-141.50;100.00;63355.56;4899305;29;20048;-80
2024/04/04 02:47:48;;;;;;;6.03;3.05;;;;;;;-141.50;100.00;63355.56;4912215;29;20158;-83
2024/04/04 02:50:14;;;;;;;5.68;2.88;;;;;;;-141.50;100.00;63355.56;4910945;29;20204;-80
2024/04/04 02:52:40;;;;;;;4.85;2.65;;;;;;;-141.50;100.00;63355.56;4907566;29;20068;-80
2024/04/04 02:55:06;;;;;;;5.80;2.88;;;;;;;-141.50;100.00;63355.56;4913217;29;20150;-79
2024/04/04 02:57:32;;;;;;;4.63;2.83;;;;;;;-141.50;100.00;63355.56;4914539;29;20135;-80
2024/04/04 02:59:58;;;;;;;4.85;2.97;;;;;;;-141.50;100.00;63355.56;4895887;29;20044;-80
2024/04/04 03:02:25;;;;;;;8.63;2.88;;;;;;;-141.50;100.00;63355.56;4913569;29;20044;-81
2024/04/04 03:04:51;;;;;;;5.28;3.17;;;;;;;-141.50;100.00;63355.56;4915468;29;20060;-78
2024/04/04 03:07:19;;;;;;;6.88;2.72;;;;;;;-141.50;100.00;63355.56;4913292;29;20048;-78
2024/04/04 03:09:47;;;;;;;6.80;2.63;;;;;;;-141.50;100.00;63355.56;4913893;29;20059;-81
2024/04/04 03:12:13;;;;;;;4.20;2.47;;;;;;;-141.50;100.00;63355.56;4907951;29;20056;-81
2024/04/04 03:14:39;;;;;;;5.13;2.72;;;;;;;-141.50;100.00;63355.56;4912752;29;20401;-79
2024/04/04 03:17:04;;;;;;;5.28;2.53;;;;;;;-141.50;100.00;63355.56;4909771;29;20338;-78
2024/04/04 03:19:30;;;;;;;8.68;2.55;;;;;;;-141.50;100.00;63355.56;4898332;29;20051;-81
2024/04/04 03:21:56;;;;;;;3.47;2.30;;;;;;;-141.50;100.00;63355.56;4897442;29;20101;-81
2024/04/04 03:24:22;;;;;;;5.93;2.40;;;;;;;-141.50;100.00;63355.56;4913978;29;20092;-79
2024/04/04 03:26:48;;;;;;;3.28;2.25;;;;;;;-141.50;100.00;63355.56;4898272;29;20052;-81
2024/04/04 03:29:14;;;;;;;3.22;2.00;;;;;;;-141.50;100.00;63355.56;4913460;29;20063;-81
2024/04/04 03:31:40;;;;;;;11.32;2.10;;;;;;;-141.50;100.00;63355.56;4897145;29;20462;-81
2024/04/04 03:34:06;;;;;;;3.38;1.48;;;;;;;-141.50;100.00;63355.56;4898118;29;20091;-81
2024/04/04 03:36:32;;;;;;;3.15;1.67;;;;;;;-141.50;100.00;63355.56;4914495;29;20040;-82
2024/04/04 03:38:58;;;;;;;1.90;1.40;;;;;;;-141.50;100.00;63355.56;4896244;29;20493;-79
2024/04/04 03:41:24;;;;;;;2.65;1.17;;;;;;;-141.50;100.00;63355.56;4897898;29;20060;-80
2024/04/04 03:43:50;;;;;;;2.53;1.00;;;;;;;-141.50;100.00;63355.56;4898265;29;20092;-80
2024/04/04 03:46:17;;;;;;;3.35;0.93;;;;;;;-141.50;100.00;63355.56;4900273;29;20051;-81
2024/04/04 03:48:44;;;;;;;2.92;1.02;;;;;;;-141.50;100.00;63355.56;4905545;29;20103;-79
2024/04/04 03:51:10;;;;;;;2.78;0.77;;;;;;;-141.50;100.00;63355.56;4903409;29;20046;-80
2024/04/04 03:53:36;;;;;;;1.50;0.88;;;;;;;-141.50;100.00;63355.56;4898051;29;20048;-80
2024/04/04 03:56:02;;;;;;;2.10;0.68;;;;;;;-141.50;100.00;63355.56;4915283;29;20140;-78
2024/04/04 03:58:28;;;;;;;2.45;0.60;;;;;;;-141.50;100.00;63355.56;4897710;29;20095;-80
2024/04/04 04:00:54;;;;;;;3.40;0.75;;;;;;;-141.50;100.00;63355.56;4900049;29;20644;-80
2024/04/04 04:03:20;;;;;;;1.80;0.57;;;;;;;-141.50;100.00;63355.56;4903349;29;20051;-78
2024/04/04 04:05:46;;;;;;;3.17;0.80;;;;;;;-141.50;100.00;63355.56;4895336;29;20517;-78
2024/04/04 04:08:13;;;;;;;2.85;0.68;;;;;;;-141.50;100.00;63355.56;4912196;29;20254;-82
2024/04/04 04:10:38;;;;;;;4.53;0.63;;;;;;;-141.50;100.00;63355.56;4910936;29;20080;-81
2024/04/04 04:13:04;;;;;;;1.17;0.55;;;;;;;-141.50;100.00;63355.56;4914273;29;20048;-78
2024/04/04 04:15:30;;;;;;;2.67;0.70;;;;;;;-141.50;100.00;63355.56;4916729;29;20079;-78
2024/04/04 04:17:56;;;;;;;2.67;0.60;;;;;;;-141.50;100.00;63355.56;4914003;29;20144;-78
2024/04/04 04:23:06;;;;;;;1.13;0.43;;;;;;;-141.50;100.00;63355.56;4917906;29;20071;-84
2024/04/04 04:25:32;;;;;;;3.15;0.60;;;;;;;-141.50;100.00;63355.56;4899260;29;20084;-81
2024/04/04 04:27:58;;;;;;;3.13;0.50;;;;;;;-141.50;100.00;63355.56;4901966;29;20059;-80
2024/04/04 04:30:24;;;;;;;2.03;0.50;;;;;;;-141.50;100.00;63355.56;4899970;29;20060;-79
2024/04/04 04:32:50;;;;;;;2.17;0.60;;;;;;;-141.50;100.00;63355.56;4898866;29;20063;-81
2024/04/04 04:35:16;;;;;;;2.92;0.60;;;;;;;-141.50;100.00;63355.56;4897956;29;20064;-81
2024/04/04 04:37:42;;;;;;;3.22;0.50;;;;;;;-141.50;100.00;63355.56;4900294;29;20068;-80
2024/04/04 04:40:08;;;;;;;2.72;0.90;;;;;;;-141.50;100.00;63355.56;4900832;29;20119;-80
2024/04/04 04:42:34;;;;;;;1.48;0.60;;;;;;;-141.50;100.00;63355.56;4901903;29;20072;-80
2024/04/04 04:44:59;;;;;;;1.63;0.60;;;;;;;-141.50;100.00;63355.56;4905767;29;20470;-81
2024/04/04 04:47:25;;;;;;;2.10;0.52;;;;;;;-141.50;100.00;63355.56;4904409;29;20119;-81
2024/04/04 04:49:52;;;;;;;1.63;0.65;;;;;;;-141.50;100.00;63355.56;4891993;29;20098;-81
2024/04/04 04:52:18;;;;;;;2.65;0.60;;;;;;;-141.50;100.00;63355.56;4905189;29;20199;-78
2024/04/04 04:54:44;;;;;;;2.65;0.60;;;;;;;-141.50;100.00;63355.56;4916706;29;20079;-81
2024/04/04 04:57:10;;;;;;;4.03;0.63;;;;;;;-141.50;100.00;63355.56;4912882;29;20056;-81
2024/04/04 04:59:36;;;;;;;3.10;0.70;;;;;;;-141.50;100.00;63355.56;4913587;29;20056;-80
2024/04/04 05:02:02;;;;;;;5.22;0.70;;;;;;;-141.50;100.00;63355.56;4896280;29;20064;-79
2024/04/04 05:04:28;;;;;;;2.35;0.50;;;;;;;-141.50;100.00;63355.56;4913324;29;20131;-80
2024/04/04 05:06:54;;;;;;;2.08;0.77;;;;;;;-141.50;100.00;63355.56;4913244;29;20060;-79
2024/04/04 05:09:20;;;;;;;2.90;0.90;;;;;;;-141.50;100.00;63355.56;4895984;29;20157;-80
2024/04/04 05:11:46;;;;;;;2.42;0.85;;;;;;;-141.50;100.00;63355.56;4913240;29;20059;-82
2024/04/04 05:14:12;;;;;;;3.15;0.77;;;;;;;-141.50;100.00;63355.56;4898560;29;20052;-80
2024/04/04 05:16:42;;;;;;;1.73;0.60;;;;;;;-141.50;100.00;63355.56;4910153;29;20123;-79
2024/04/04 05:19:08;;;;;;;1.15;0.50;;;;;;;-141.50;100.00;63355.56;4905364;29;20059;-83
2024/04/04 05:21:34;;;;;;;2.75;0.70;;;;;;;-141.50;100.00;63355.56;4913374;29;20056;-80
2024/04/04 05:24:01;;;;;;;2.78;0.60;;;;;;;-141.50;100.00;63355.56;4907461;29;20060;-80
2024/04/04 05:26:27;;;;;;;2.88;0.73;;;;;;;-141.50;100.00;63355.56;4898196;29;20052;-82
2024/04/04 05:28:55;;;;;;;3.30;0.60;;;;;;;-141.50;100.00;63355.56;4902492;29;20146;-83
2024/04/04 05:31:24;;;;;;;3.75;0.70;;;;;;;-141.50;100.00;63355.56;4880697;29;20139;-82
2024/04/04 05:33:52;;;;;;;6.53;0.70;;;;;;;-141.50;100.00;63355.56;4901976;29;20059;-80
2024/04/04 05:36:18;;;;;;;4.60;1.00;;;;;;;-141.50;100.00;63355.56;4911410;29;20044;-81
2024/04/04 05:38:43;;;;;;;1.95;0.68;;;;;;;-141.50;100.00;63355.56;4913517;29;20084;-80
2024/04/04 05:41:09;;;;;;;7.32;0.85;;;;;;;-141.50;100.00;63355.56;4912420;29;20513;-81
2024/04/04 05:43:35;;;;;;;2.47;0.55;;;;;;;-141.50;100.00;63355.56;4909160;29;20060;-81
2024/04/04 05:46:02;;;;;;;2.03;0.68;;;;;;;-141.50;100.00;63355.56;4912810;29;20493;-82
2024/04/04 05:48:28;;;;;;;2.90;0.70;;;;;;;-141.50;100.00;63355.56;4909750;29;20417;-80
2024/04/04 05:51:04;;;;;;;1.67;0.73;;;;;;;-141.50;100.00;63355.56;4906261;29;20055;-80
2024/04/04 05:53:30;;;;;;;3.40;0.57;;;;;;;-141.50;100.00;63355.56;4911821;29;20110;-80
2024/04/04 05:55:57;;;;;;;1.88;0.70;;;;;;;-141.50;100.00;63355.56;4909200;29;20063;-83
2024/04/04 05:58:26;;;;;;;6.32;0.68;;;;;;;-141.50;100.00;63355.56;4913545;29;20075;-80
2024/04/04 06:00:52;;;;;;;1.38;0.50;;;;;;;-141.50;100.00;63355.56;4912666;29;20529;-83
2024/04/04 06:03:18;;;;;;;4.85;0.50;;;;;;;-141.50;100.00;63355.56;4911979;29;20044;-80
2024/04/04 06:05:44;;;;;;;2.22;0.80;;;;;;;-141.50;100.00;63355.56;4894129;29;20706;-81
2024/04/04 06:08:10;;;;;;;3.50;0.70;;;;;;;-141.50;100.00;63355.56;4898132;29;20059;-81
2024/04/04 06:10:36;;;;;;;2.95;0.75;;;;;;;-141.50;100.00;63355.56;4914405;29;20060;-83
2024/04/04 06:13:03;;;;;;;3.00;0.55;;;;;;;-141.50;100.00;63355.56;4914941;29;20068;-81
2024/04/04 06:15:29;;;;;;;1.92;0.50;;;;;;;-141.50;100.00;63355.56;4890809;29;20076;-79
2024/04/04 06:17:55;;;;;;;1.85;0.70;;;;;;;-141.50;100.00;63355.56;4913704;29;20051;-81
2024/04/04 06:20:21;;;;;;;1.23;0.50;;;;;;;-141.50;100.00;63355.56;4892240;29;20115;-83
2024/04/04 06:22:46;;;;;;;3.28;0.80;;;;;;;-141.50;100.00;63355.56;4905810;29;20060;-82
2024/04/04 06:25:12;;;;;;;2.85;0.85;;;;;;;-141.50;100.00;63355.56;4908783;29;20079;-80
2024/04/04 06:27:38;;;;;;;4.03;0.80;;;;;;;-141.50;100.00;63355.56;4907113;29;20120;-82
2024/04/04 06:30:05;;;;;;;1.95;0.60;;;;;;;-141.50;100.00;63355.56;4908919;29;20071;-83
2024/04/04 06:32:31;;;;;;;5.03;0.90;;;;;;;-141.50;100.00;63355.56;4895734;29;20056;-80
2024/04/04 06:34:57;;;;;;;3.13;0.82;;;;;;;-141.50;100.00;63355.56;4907080;29;20139;-78
2024/04/04 06:37:22;;;;;;;5.93;1.00;;;;;;;-141.50;100.00;63355.56;4899580;29;20134;-79
2024/04/04 06:39:48;;;;;;;4.25;1.10;;;;;;;-141.50;100.00;63355.56;4897279;29;20060;-79
2024/04/04 06:42:14;;;;;;;4.75;1.10;;;;;;;-141.50;100.00;63355.56;4893284;29;20048;-77
2024/04/04 06:44:40;;;;;;;8.10;1.10;;;;;;;-141.50;100.00;63355.56;4896206;29;20067;-79
2024/04/04 06:47:06;;;;;;;4.65;0.80;;;;;;;-141.50;100.00;63355.56;4911961;29;20052;-78
2024/04/04 06:49:32;;;;;;;2.20;0.80;;;;;;;-141.50;100.00;63355.56;4895542;29;20135;-78
2024/04/04 06:51:58;;;;;;;4.35;0.98;;;;;;;-141.50;100.00;63355.56;4910911;29;20067;-79
2024/04/04 06:54:24;;;;;;;3.25;0.80;;;;;;;-141.50;100.00;63355.56;4911469;29;20040;-81
2024/04/04 06:56:49;;;;;;;2.70;0.93;;;;;;;-141.50;100.00;63355.56;4911509;29;20465;-78
2024/04/04 06:59:15;;;;;;;3.03;0.80;;;;;;;-141.50;100.00;63355.56;4910634;29;20505;-79
2024/04/04 07:01:41;;;;;;;4.50;0.90;;;;;;;-141.50;100.00;63355.56;4903633;29;20059;-80
2024/04/04 07:04:07;;;;;;;2.00;0.90;;;;;;;-141.50;100.00;63355.56;4910769;29;20305;-80
2024/04/04 07:06:34;;;;;;;5.03;1.10;;;;;;;-141.50;100.00;63355.56;4908530;29;20067;-81
2024/04/04 07:09:00;;;;;;;3.78;0.75;;;;;;;-141.50;100.00;63355.56;4910399;29;20497;-80
2024/04/04 07:11:28;;;;;;;2.58;0.70;;;;;;;-141.50;100.00;63355.56;4904685;29;20047;-81
2024/04/04 07:13:54;;;;;;;4.60;0.90;;;;;;;-141.50;100.00;63355.56;4907391;29;20060;-80
2024/04/04 07:16:20;;;;;;;5.63;1.00;;;;;;;-141.50;100.00;63355.56;4897988;29;20133;-79
2024/04/04 07:18:46;;;;;;;1.83;0.90;;;;;;;-141.50;100.00;63355.56;4893303;29;20052;-79
2024/04/04 07:21:12;;;;;;;1.90;0.90;;;;;;;-141.50;100.00;63355.56;4906422;29;20063;-80
2024/04/04 07:23:37;;;;;;;2.20;0.70;;;;;;;-141.50;100.00;63355.56;4901439;29;20488;-83
2024/04/04 07:26:03;;;;;;;1.90;0.68;;;;;;;-141.50;100.00;63355.56;4896207;29;20052;-81
2024/04/04 07:28:29;;;;;;;1.45;0.55;;;;;;;-141.50;100.00;63355.56;4914164;29;20048;-82
2024/04/04 07:30:55;;;;;;;1.77;0.60;;;;;;;-141.50;100.00;63355.56;4898650;29;20056;-82
2024/04/04 07:33:21;;;;;;;5.20;0.90;;;;;;;-141.50;100.00;63355.56;4898701;29;20041;-80
2024/04/04 07:35:46;;;;;;;4.07;0.82;;;;;;;-141.50;100.00;63355.56;4916417;29;20056;-81
2024/04/04 07:38:13;;;;;;;5.78;0.93;;;;;;;-141.50;100.00;63355.56;4886235;29;20520;-80
2024/04/04 07:40:40;;;;;;;4.68;1.10;;;;;;;-141.50;100.00;63355.56;4908917;29;20056;-79
2024/04/04 07:43:07;;;;;;;3.75;0.80;;;;;;;-141.50;100.00;63355.56;4900120;29;20122;-79
2024/04/04 07:45:38;;;;;;;4.57;0.88;;;;;;;-141.50;100.00;63355.56;4911646;29;20056;-80
2024/04/04 07:48:07;;;;;;;2.47;0.57;;;;;;;-141.50;100.00;63355.56;4915675;29;20114;-79
2024/04/04 07:50:34;;;;;;;3.60;0.95;;;;;;;-141.50;100.00;63355.56;4908678;29;20053;-81
2024/04/04 07:53:00;;;;;;;3.53;0.80;;;;;;;-141.50;100.00;63355.56;4898869;29;20558;-82
2024/04/04 07:55:26;;;;;;;4.00;0.90;;;;;;;-141.50;100.00;63355.56;4915541;29;20047;-81
2024/04/04 07:57:52;;;;;;;3.78;0.85;;;;;;;-141.50;100.00;63355.56;4904721;29;20063;-80
2024/04/04 08:00:18;;;;;;;4.50;0.88;;;;;;;-141.50;100.00;63355.56;4915560;29;20517;-80
2024/04/04 08:02:45;;;;;;;3.15;0.95;;;;;;;-141.50;100.00;63355.56;4915001;29;20063;-81
2024/04/04 08:05:11;;;;;;;9.02;0.90;;;;;;;-141.50;100.00;63355.56;4915002;29;20421;-81
2024/04/04 08:07:36;;;;;;;5.47;1.00;;;;;;;-141.50;100.00;63355.56;4899039;29;20072;-80
2024/04/04 08:10:10;;;;;;;3.55;1.00;;;;;;;-141.50;100.00;63355.56;4913647;29;20544;-81
2024/04/04 08:12:37;;;;;;;2.05;0.95;;;;;;;-141.50;100.00;63355.56;4914152;29;20072;-80
2024/04/04 08:15:10;;;;;;;3.38;0.98;;;;;;;-141.50;100.00;63355.56;4899967;29;20060;-81
2024/04/04 08:17:42;;;;;;;4.45;1.00;;;;;;;-141.50;100.00;63355.56;4915795;29;20058;-79
2024/04/04 08:20:09;;;;;;;1.60;0.60;;;;;;;-141.50;100.00;63355.56;4921907;29;20581;-80
2024/04/04 08:22:36;;;;;;;2.25;0.90;;;;;;;-141.50;100.00;63355.56;4899732;29;20062;-81
2024/04/04 08:25:02;;;;;;;2.90;0.95;;;;;;;-141.50;100.00;63355.56;4899264;29;20048;-81
2024/04/04 08:27:29;;;;;;;3.05;0.90;;;;;;;-141.50;100.00;63355.56;4914310;29;20048;-80
2024/04/04 08:29:55;;;;;;;1.58;0.80;;;;;;;-141.50;100.00;63355.56;4908505;29;20151;-80
2024/04/04 08:32:21;;;;;;;4.95;1.05;;;;;;;-141.50;100.00;63355.56;4913582;29;20138;-80
2024/04/04 08:34:47;;;;;;;4.72;0.90;;;;;;;-141.50;100.00;63355.56;4909926;29;20120;-81
2024/04/04 08:37:13;;;;;;;4.00;0.77;;;;;;;-141.50;100.00;63355.56;4913891;29;20398;-83
2024/04/04 08:39:39;;;;;;;5.63;0.80;;;;;;;-141.50;100.00;63355.56;4895547;29;20491;-81
2024/04/04 08:42:05;;;;;;;3.63;0.77;;;;;;;-141.50;100.00;63355.56;4897664;29;20196;-81
2024/04/04 08:44:32;;;;;;;2.50;0.80;;;;;;;-141.50;100.00;63355.56;4914133;29;20044;-82
2024/04/04 08:47:02;;;;;;;1.65;0.70;;;;;;;-141.50;100.00;63355.56;4905404;29;20060;-81
2024/04/04 08:49:29;;;;;;;1.48;0.60;;;;;;;-141.50;100.00;63355.56;4898154;29;20112;-81
2024/04/04 08:51:59;;;;;;;3.13;0.60;;;;;;;-141.50;100.00;63355.56;4913629;29;20525;-80
2024/04/04 08:54:26;;;;;;;2.58;0.73;;;;;;;-141.50;100.00;63355.56;4900185;29;20044;-81
2024/04/04 08:56:54;;;;;;;4.95;0.75;;;;;;;-141.50;100.00;63355.56;4914437;29;20132;-79
2024/04/04 08:59:21;;;;;;;1.55;1.05;;;;;;;-141.50;100.00;63355.56;4898003;29;20493;-81
2024/04/04 09:01:47;;;;;;;2.35;0.65;;;;;;;-141.50;100.00;63355.56;4898571;29;20056;-80
2024/04/04 09:04:26;;;;;;;0.93;0.40;;;;;;;-141.50;100.00;63355.56;4912019;29;20060;-79
2024/04/04 09:06:53;;;;;;;2.67;0.70;;;;;;;-141.50;100.00;63355.56;4908820;29;20056;-80
2024/04/04 09:09:19;;;;;;;1.70;0.70;;;;;;;-141.50;100.00;63355.56;4897224;29;20043;-80
2024/04/04 09:11:46;;;;;;;2.53;0.50;;;;;;;-141.50;100.00;63355.56;4913179;29;20135;-81
2024/04/04 09:14:14;;;;;;;2.28;0.43;;;;;;;-141.50;100.00;63355.56;4913237;29;20068;-79
2024/04/04 09:16:42;;;;;;;2.35;0.63;;;;;;;-141.50;100.00;63355.56;4912399;29;20572;-80
2024/04/04 09:19:18;;;;;;;1.45;0.40;;;;;;;-141.50;100.00;63355.56;4899552;29;20297;-80
2024/04/04 09:21:45;;;;;;;0.45;0.40;;;;;;;-141.50;100.00;63355.56;4912648;29;20083;-80
2024/04/04 09:24:13;;;;;;;1.45;0.50;;;;;;;-141.50;100.00;63355.56;4914645;29;20063;-80
2024/04/04 09:26:40;;;;;;;5.40;0.68;;;;;;;-141.50;100.00;63355.56;4904910;29;20048;-78
2024/04/04 09:29:06;;;;;;;3.30;0.40;;;;;;;-141.50;100.00;63355.56;4919017;29;20064;-80
2024/04/04 09:31:35;;;;;;;2.72;0.60;;;;;;;-141.50;100.00;63355.56;4920066;29;20103;-80
2024/04/04 09:34:01;;;;;;;1.33;0.50;;;;;;;-141.50;100.00;63355.56;4912368;29;20052;-80
2024/04/04 09:36:33;;;;;;;0.90;0.32;;;;;;;-141.50;100.00;63355.56;4910250;29;20050;-81
2024/04/04 09:39:00;;;;;;;1.83;0.50;;;;;;;-141.50;100.00;63355.56;4912581;29;20080;-82
2024/04/04 09:41:30;;;;;;;0.45;0.30;;;;;;;-141.50;100.00;63355.56;4914490;29;20048;-80
2024/04/04 09:43:57;;;;;;;2.20;0.70;;;;;;;-141.50;100.00;63355.56;4903525;29;20060;-82
2024/04/04 09:46:25;;;;;;;2.47;0.40;;;;;;;-141.50;100.00;63355.56;4908289;29;20052;-82
2024/04/04 09:48:54;;;;;;;1.42;0.40;;;;;;;-141.50;100.00;63355.56;4906971;29;20056;-81
2024/04/04 09:51:25;;;;;;;1.92;0.47;;;;;;;-141.50;100.00;63355.56;4907721;29;20457;-79
2024/04/04 09:53:52;;;;;;;2.70;0.60;;;;;;;-141.50;100.00;63355.56;4900051;29;20048;-81
2024/04/04 09:56:21;;;;;;;1.25;0.43;;;;;;;-141.50;100.00;63355.56;4898334;29;20040;-79
2024/04/04 09:58:48;;;;;;;4.82;0.50;;;;;;;-141.50;100.00;63355.56;4911295;29;20048;-81
2024/04/04 10:01:24;;;;;;;1.90;0.50;;;;;;;-141.50;100.00;63355.56;4896922;29;20048;-80
2024/04/04 10:03:52;;;;;;;2.15;0.50;;;;;;;-141.50;100.00;63355.56;4910879;29;20139;-79
2024/04/04 10:06:29;;;;;;;3.75;0.50;;;;;;;-141.50;100.00;63355.56;4896063;29;20119;-81
2024/04/04 10:08:57;;;;;;;1.95;0.60;;;;;;;-141.50;100.00;63355.56;4910631;29;20200;-79
2024/04/04 10:11:30;;;;;;;2.65;0.47;;;;;;;-141.50;100.00;63355.56;4911992;29;20048;-80
2024/04/04 10:14:00;;;;;;;7.60;1.27;;;;;;;-141.50;100.00;63355.56;4911112;29;22415;-80
2024/04/04 10:16:38;;;;;;;1.85;0.63;;;;;;;-141.50;100.00;63355.56;4915181;29;20048;-80
2024/04/04 10:19:24;;;;;;;1.98;0.50;;;;;;;-141.50;100.00;63355.56;4904834;29;20065;-80
2024/04/04 10:21:50;;;;;;;3.40;0.50;;;;;;;-141.50;100.00;63355.56;4898089;29;20048;-80
2024/04/04 10:24:20;;;;;;;1.95;0.65;;;;;;;-141.50;100.00;63355.56;4879325;29;20036;-80
2024/04/04 10:26:52;;;;;;;3.80;0.57;;;;;;;-141.50;100.00;63355.56;4902641;29;20052;-81
2024/04/04 10:29:17;;;;;;;5.22;0.70;;;;;;;-141.50;100.00;63355.56;4895900;29;20063;-79
2024/04/04 10:31:43;;;;;;;3.80;0.80;;;;;;;-141.50;100.00;63355.56;4911805;29;20060;-80
2024/04/04 10:34:11;;;;;;;1.58;0.70;;;;;;;-141.50;100.00;63355.56;4883210;29;20056;-83
2024/04/04 10:36:45;;;;;;;5.57;0.77;;;;;;;-141.50;100.00;63355.56;4911359;29;20564;-80
2024/04/04 10:39:13;;;;;;;2.45;0.60;;;;;;;-141.50;100.00;63355.56;4887529;29;20131;-80
2024/04/04 10:41:42;;;;;;;3.53;0.70;;;;;;;-141.50;100.00;63355.56;4905594;29;20604;-80
2024/04/04 10:44:13;;;;;;;3.65;0.88;;;;;;;-141.50;100.00;63355.56;4895003;29;20052;-79
2024/04/04 10:46:41;;;;;;;6.93;0.65;;;;;;;-141.50;100.00;63355.56;4907390;29;20114;-81
2024/04/04 10:49:07;;;;;;;2.20;0.52;;;;;;;-141.50;100.00;63355.56;4897612;29;20465;-80
2024/04/04 10:51:34;;;;;;;4.30;0.65;;;;;;;-141.50;100.00;63355.56;4911583;29;20048;-81
2024/04/04 10:54:00;;;;;;;2.70;0.70;;;;;;;-141.50;100.00;63355.56;4906145;29;20095;-80
2024/04/04 10:56:26;;;;;;;8.35;1.02;;;;;;;-141.50;100.00;63355.56;4896370;29;20604;-81
2024/04/04 10:58:52;;;;;;;4.28;1.20;;;;;;;-141.50;100.00;63355.56;4910927;29;20057;-80
2024/04/04 11:01:18;;;;;;;4.75;0.90;;;;;;;-141.50;100.00;63355.56;4909306;29;20421;-80
2024/04/04 11:03:44;;;;;;;5.03;0.60;;;;;;;-141.50;100.00;63355.56;4900503;29;20409;-80
2024/04/04 11:06:10;;;;;;;9.98;1.00;;;;;;;-141.50;100.00;63355.56;4911065;29;20537;-81
2024/04/04 11:08:36;;;;;;;7.72;0.93;;;;;;;-141.50;100.00;63355.56;4900733;29;20052;-82
2024/04/04 11:11:04;;;;;;;3.78;0.50;;;;;;;-141.50;100.00;63355.56;4909918;29;20098;-82